createdAt,value
2022-10-13T00:01:19.561Z,8.20
2022-10-13T00:03:47.532Z,8.25
2022-10-13T00:06:22.300Z,8.29
2022-10-13T00:08:49.301Z,8.32
2022-10-13T00:11:19.359Z,8.34
2022-10-13T00:13:47.366Z,8.35
2022-10-13T00:16:16.968Z,8.34
2022-10-13T00:18:44.251Z,8.37
2022-10-13T00:21:13.992Z,8.37
2022-10-13T00:23:41.690Z,8.40
2022-10-13T00:26:10.969Z,8.37
2022-10-13T00:28:38.472Z,8.39
2022-10-13T00:31:22.090Z,8.28
2022-10-13T00:33:53.061Z,8.24
2022-10-13T00:36:22.691Z,8.25
2022-10-13T00:38:49.656Z,8.27
2022-10-13T00:41:17.885Z,8.29
2022-10-13T00:44:05.114Z,8.33
2022-10-13T00:46:34.621Z,8.33
2022-10-13T00:49:08.390Z,8.30
2022-10-13T00:51:39.450Z,8.30
2022-10-13T00:54:08.085Z,8.15
2022-10-13T00:56:35.911Z,8.05
2022-10-13T00:59:04.350Z,8.07
2022-10-13T01:01:31.853Z,8.10
2022-10-13T01:03:58.995Z,8.14
2022-10-13T01:06:26.031Z,8.18
2022-10-13T01:08:54.745Z,8.23
2022-10-13T01:11:36.174Z,8.25
2022-10-13T01:14:35.922Z,8.30
2022-10-13T01:17:10.712Z,8.32
2022-10-13T01:19:55.034Z,8.30
2022-10-13T01:22:36.435Z,8.30
2022-10-13T01:25:25.421Z,8.28
2022-10-13T01:28:11.190Z,8.31
2022-10-13T01:30:44.251Z,8.36
2022-10-13T01:33:48.673Z,8.38
2022-10-13T01:36:33.986Z,8.45
2022-10-13T01:39:07.590Z,8.47
2022-10-13T01:41:41.707Z,8.48
2022-10-13T01:44:16.371Z,8.45
2022-10-13T01:46:52.271Z,8.40
2022-10-13T01:49:26.991Z,8.40
2022-10-13T01:51:55.711Z,8.43
2022-10-13T01:54:22.789Z,8.42
2022-10-13T01:56:56.475Z,8.37
2022-10-13T01:59:24.662Z,8.39
2022-10-13T02:02:19.619Z,8.39
2022-10-13T02:05:11.603Z,8.41
2022-10-13T02:07:44.191Z,8.44
2022-10-13T02:10:22.953Z,8.43
2022-10-13T02:13:08.647Z,8.41
2022-10-13T02:15:41.334Z,8.41
2022-10-13T02:18:10.075Z,8.41
2022-10-13T02:20:37.470Z,8.41
2022-10-13T02:23:10.821Z,8.40
2022-10-13T02:25:38.274Z,8.37
2022-10-13T02:28:05.790Z,8.35
2022-10-13T02:30:42.760Z,8.36
2022-10-13T02:33:10.490Z,8.36
2022-10-13T02:35:38.040Z,8.33
2022-10-13T02:38:05.407Z,8.35
2022-10-13T02:40:32.341Z,8.37
2022-10-13T02:42:59.374Z,8.39
2022-10-13T02:45:26.577Z,8.42
2022-10-13T02:47:55.542Z,8.41
2022-10-13T02:50:22.583Z,8.38
2022-10-13T02:52:50.638Z,8.35
2022-10-13T02:55:17.872Z,8.34
2022-10-13T02:57:46.152Z,8.38
2022-10-13T03:00:14.352Z,8.37
2022-10-13T03:02:41.361Z,8.38
2022-10-13T03:05:09.090Z,8.39
2022-10-13T03:07:36.254Z,8.39
2022-10-13T03:10:03.959Z,8.40
2022-10-13T03:12:31.062Z,8.40
2022-10-13T03:14:58.045Z,8.37
2022-10-13T03:17:25.902Z,8.39
2022-10-13T03:19:52.946Z,8.39
2022-10-13T03:22:20.235Z,8.38
2022-10-13T03:24:47.430Z,8.35
2022-10-13T03:27:14.394Z,8.36
2022-10-13T03:29:41.537Z,8.38
2022-10-13T03:32:08.658Z,8.38
2022-10-13T03:34:35.631Z,8.39
2022-10-13T03:37:02.621Z,8.37
2022-10-13T03:39:33.894Z,8.37
2022-10-13T03:42:01.066Z,8.40
2022-10-13T03:44:28.091Z,8.39
2022-10-13T03:46:55.153Z,8.41
2022-10-13T03:49:22.062Z,8.43
2022-10-13T03:51:49.019Z,8.46
2022-10-13T03:54:16.055Z,8.49
2022-10-13T03:56:46.664Z,8.49
2022-10-13T03:59:16.706Z,8.49
2022-10-13T04:01:43.947Z,8.49
2022-10-13T04:04:11.709Z,8.48
2022-10-13T04:06:42.142Z,8.51
2022-10-13T04:09:09.677Z,8.50
2022-10-13T04:11:36.901Z,8.49
2022-10-13T04:14:04.210Z,8.49
2022-10-13T04:16:31.757Z,8.46
2022-10-13T04:19:02.950Z,8.43
2022-10-13T04:21:31.343Z,8.42
2022-10-13T04:23:59.386Z,8.33
2022-10-13T04:26:28.412Z,8.30
2022-10-13T04:28:56.716Z,8.25
2022-10-13T04:31:24.209Z,8.17
2022-10-13T04:33:52.108Z,8.14
2022-10-13T04:38:50.434Z,8.09
2022-10-13T04:41:18.804Z,8.06
2022-10-13T04:43:49.824Z,8.04
2022-10-13T04:46:19.642Z,8.00
2022-10-13T04:48:49.223Z,7.95
2022-10-13T04:51:22.074Z,7.91
2022-10-13T04:53:49.184Z,7.90
2022-10-13T04:56:18.172Z,7.87
2022-10-13T04:58:46.208Z,7.82
2022-10-13T05:01:21.165Z,7.77
2022-10-13T05:03:59.020Z,7.72
2022-10-13T05:06:28.122Z,7.67
2022-10-13T05:08:58.015Z,7.60
2022-10-13T05:11:26.779Z,7.54
2022-10-13T05:13:54.159Z,7.50
2022-10-13T05:16:22.481Z,7.47
2022-10-13T05:18:50.791Z,7.46
2022-10-13T05:21:23.335Z,7.46
2022-10-13T05:23:54.175Z,7.45
2022-10-13T05:26:22.753Z,7.45
2022-10-13T05:28:49.876Z,7.41
2022-10-13T05:31:22.265Z,7.36
2022-10-13T05:33:50.083Z,7.31
2022-10-13T05:36:31.373Z,7.23
2022-10-13T05:39:00.239Z,7.17
2022-10-13T05:41:28.438Z,7.14
2022-10-13T05:43:59.575Z,7.11
2022-10-13T05:46:26.824Z,7.11
2022-10-13T05:48:54.027Z,7.10
2022-10-13T05:51:30.505Z,7.06
2022-10-13T05:54:07.010Z,7.09
2022-10-13T05:56:38.615Z,7.10
2022-10-13T05:59:08.715Z,7.11
2022-10-13T06:01:39.030Z,7.15
2022-10-13T06:04:09.772Z,7.20
2022-10-13T06:06:37.794Z,7.29
2022-10-13T06:09:04.768Z,7.36
2022-10-13T06:11:31.818Z,7.43
2022-10-13T06:13:58.785Z,7.48
2022-10-13T06:16:25.999Z,7.59
2022-10-13T06:18:53.129Z,7.71
2022-10-13T06:21:20.167Z,7.83
2022-10-13T06:23:47.102Z,7.95
2022-10-13T06:26:14.166Z,8.05
2022-10-13T06:28:41.084Z,8.16
2022-10-13T06:31:08.239Z,8.28
2022-10-13T06:33:35.295Z,8.41
2022-10-13T06:36:04.272Z,8.51
2022-10-13T06:38:31.719Z,8.57
2022-10-13T06:41:02.818Z,8.67
2022-10-13T06:43:39.654Z,8.75
2022-10-13T06:46:10.922Z,8.83
2022-10-13T06:48:38.259Z,8.93
2022-10-13T06:51:08.248Z,9.04
2022-10-13T06:53:35.589Z,9.14
2022-10-13T06:56:04.560Z,9.25
2022-10-13T06:58:31.758Z,9.39
2022-10-13T07:00:58.759Z,9.48
2022-10-13T07:03:26.167Z,9.62
2022-10-13T07:05:53.439Z,9.73
2022-10-13T07:08:21.098Z,9.82
2022-10-13T07:10:48.960Z,9.91
2022-10-13T07:13:15.936Z,10.02
2022-10-13T07:15:43.010Z,10.13
2022-10-13T07:18:10.022Z,10.23
2022-10-13T07:20:37.120Z,10.32
2022-10-13T07:23:04.158Z,10.40
2022-10-13T07:25:32.298Z,10.51
2022-10-13T07:28:00.120Z,10.67
2022-10-13T07:30:27.698Z,10.75
2022-10-13T07:32:54.810Z,10.85
2022-10-13T07:35:25.851Z,10.97
2022-10-13T07:37:56.658Z,11.10
2022-10-13T07:40:23.708Z,11.21
2022-10-13T07:42:50.838Z,11.32
2022-10-13T07:45:18.139Z,11.42
2022-10-13T07:47:45.218Z,11.48
2022-10-13T07:50:12.332Z,11.54
2022-10-13T07:52:39.536Z,11.62
2022-10-13T07:55:09.229Z,11.68
2022-10-13T07:57:36.380Z,11.73
2022-10-13T08:00:06.229Z,11.75
2022-10-13T08:02:39.598Z,11.78
2022-10-13T08:05:07.548Z,11.89
2022-10-13T08:07:34.478Z,11.94
2022-10-13T08:10:01.534Z,12.00
2022-10-13T08:12:28.460Z,12.08
2022-10-13T08:14:55.750Z,12.18
2022-10-13T08:17:22.951Z,12.24
2022-10-13T08:19:51.732Z,12.33
2022-10-13T08:22:20.734Z,12.44
2022-10-13T08:24:49.908Z,12.49
2022-10-13T08:27:21.565Z,12.52
2022-10-13T08:29:49.112Z,12.59
2022-10-13T08:32:16.707Z,12.61
2022-10-13T08:34:43.838Z,12.66
2022-10-13T08:37:18.218Z,12.71
2022-10-13T08:39:45.598Z,12.77
2022-10-13T08:42:22.800Z,12.85
2022-10-13T08:45:22.224Z,12.97
2022-10-13T08:47:47.339Z,13.02
2022-10-13T08:50:20.638Z,12.99
2022-10-13T08:52:53.298Z,12.96
2022-10-13T08:55:50.920Z,13.01
2022-10-13T08:58:26.408Z,12.97
2022-10-13T09:01:05.659Z,12.99
2022-10-13T09:03:32.759Z,13.10
2022-10-13T09:06:09.738Z,13.23
2022-10-13T09:08:53.398Z,13.16
2022-10-13T09:11:21.278Z,13.22
2022-10-13T09:13:48.458Z,13.22
2022-10-13T09:16:15.609Z,13.29
2022-10-13T09:18:42.588Z,13.20
2022-10-13T09:21:20.336Z,13.17
2022-10-13T09:23:49.847Z,13.24
2022-10-13T09:26:23.770Z,13.27
2022-10-13T09:28:51.952Z,13.33
2022-10-13T09:31:25.090Z,13.30
2022-10-13T09:34:23.819Z,13.34
2022-10-13T09:37:00.807Z,13.45
2022-10-13T09:39:28.870Z,13.41
2022-10-13T09:42:25.890Z,13.39
2022-10-13T09:45:01.826Z,13.46
2022-10-13T09:47:30.507Z,13.50
2022-10-13T09:50:17.002Z,13.56
2022-10-13T09:52:45.718Z,13.53
2022-10-13T09:55:33.207Z,13.53
2022-10-13T09:58:05.978Z,13.60
2022-10-13T10:00:33.119Z,13.67
2022-10-13T10:03:26.439Z,13.65
2022-10-13T10:05:58.267Z,13.72
2022-10-13T10:08:50.967Z,13.80
2022-10-13T10:11:32.558Z,13.80
2022-10-13T10:14:05.708Z,13.67
2022-10-13T10:16:41.170Z,13.64
2022-10-13T10:19:08.069Z,13.61
2022-10-13T10:22:05.758Z,13.54
2022-10-13T10:24:51.960Z,13.59
2022-10-13T10:27:23.988Z,13.69
2022-10-13T10:29:54.928Z,13.83
2022-10-13T10:32:54.241Z,13.81
2022-10-13T10:35:42.654Z,13.80
2022-10-13T10:38:39.727Z,13.78
2022-10-13T10:41:43.861Z,13.77
2022-10-13T10:44:14.349Z,13.86
2022-10-13T10:46:54.359Z,13.90
2022-10-13T10:49:31.511Z,13.95
2022-10-13T10:52:00.470Z,14.02
2022-10-13T10:54:49.522Z,14.06
2022-10-13T10:57:31.888Z,14.17
2022-10-13T11:00:06.015Z,14.23
2022-10-13T11:02:52.794Z,14.30
2022-10-13T11:05:20.429Z,14.34
2022-10-13T11:07:47.428Z,14.31
2022-10-13T11:10:14.436Z,14.29
2022-10-13T11:12:53.543Z,14.32
2022-10-13T11:15:31.257Z,14.38
2022-10-13T11:17:58.348Z,14.33
2022-10-13T11:20:34.409Z,14.22
2022-10-13T11:23:01.420Z,14.18
2022-10-13T11:25:41.252Z,14.17
2022-10-13T11:28:23.533Z,14.17
2022-10-13T11:30:58.484Z,14.18
2022-10-13T11:33:45.757Z,14.28
2022-10-13T11:36:31.722Z,14.27
2022-10-13T11:39:23.299Z,14.29
2022-10-13T11:41:59.409Z,14.28
2022-10-13T11:44:32.559Z,14.31
2022-10-13T11:47:36.334Z,14.32
2022-10-13T11:50:21.841Z,14.29
2022-10-13T11:53:18.761Z,14.26
2022-10-13T11:55:56.672Z,14.29
2022-10-13T11:58:25.720Z,14.38
2022-10-13T12:01:01.020Z,14.36
2022-10-13T12:03:39.668Z,14.38
2022-10-13T12:06:33.568Z,14.34
2022-10-13T12:09:18.612Z,14.39
2022-10-13T12:11:45.838Z,14.44
2022-10-13T12:14:22.358Z,14.45
2022-10-13T12:16:57.267Z,14.40
2022-10-13T12:19:28.075Z,14.35
2022-10-13T12:22:00.292Z,14.39
2022-10-13T12:24:31.118Z,14.43
2022-10-13T12:26:58.929Z,14.50
2022-10-13T12:29:34.868Z,14.53
2022-10-13T12:32:06.052Z,14.53
2022-10-13T12:34:36.038Z,14.56
2022-10-13T12:37:14.359Z,14.53
2022-10-13T12:39:41.499Z,14.50
2022-10-13T12:42:11.529Z,14.47
2022-10-13T12:44:39.738Z,14.45
2022-10-13T12:47:49.446Z,14.46
2022-10-13T12:50:23.869Z,14.46
2022-10-13T12:53:13.940Z,14.48
2022-10-13T12:55:55.299Z,14.45
2022-10-13T12:58:32.161Z,14.39
2022-10-13T13:01:22.012Z,14.37
2022-10-13T13:03:56.412Z,14.31
2022-10-13T13:06:32.668Z,14.36
2022-10-13T13:09:20.074Z,14.32
2022-10-13T13:11:47.869Z,14.37
2022-10-13T13:14:33.318Z,14.31
2022-10-13T13:17:38.825Z,14.27
2022-10-13T13:20:27.349Z,14.32
2022-10-13T13:22:55.269Z,14.29
2022-10-13T13:25:22.634Z,14.29
2022-10-13T13:27:50.009Z,14.29
2022-10-13T13:30:20.868Z,14.29
2022-10-13T13:32:48.721Z,14.30
2022-10-13T13:35:16.140Z,14.31
2022-10-13T13:37:49.021Z,14.30
2022-10-13T13:40:19.218Z,14.32
2022-10-13T13:42:46.340Z,14.36
2022-10-13T13:45:18.641Z,14.37
2022-10-13T13:47:46.250Z,14.36
2022-10-13T13:50:20.679Z,14.38
2022-10-13T13:52:57.457Z,14.40
2022-10-13T13:55:25.896Z,14.41
2022-10-13T13:57:55.017Z,14.31
2022-10-13T14:00:22.878Z,14.29
2022-10-13T14:02:58.458Z,14.29
2022-10-13T14:05:25.822Z,14.27
2022-10-13T14:07:58.171Z,14.24
2022-10-13T14:10:26.461Z,14.16
2022-10-13T14:12:53.928Z,14.15
2022-10-13T14:15:23.400Z,14.06
2022-10-13T14:17:54.132Z,14.06
2022-10-13T14:20:22.072Z,13.93
2022-10-13T14:22:49.273Z,13.78
2022-10-13T14:25:16.781Z,13.71
2022-10-13T14:27:45.832Z,13.60
2022-10-13T14:30:13.841Z,13.47
2022-10-13T14:32:40.977Z,13.42
2022-10-13T14:35:08.507Z,13.37
2022-10-13T14:37:35.851Z,13.32
2022-10-13T14:40:03.789Z,13.30
2022-10-13T14:42:31.117Z,13.24
2022-10-13T14:44:58.377Z,13.22
2022-10-13T14:47:25.598Z,13.16
2022-10-13T14:49:52.731Z,13.12
2022-10-13T14:52:19.664Z,13.10
2022-10-13T14:54:46.790Z,13.09
2022-10-13T14:57:16.492Z,13.07
2022-10-13T14:59:44.258Z,13.08
2022-10-13T15:02:12.236Z,13.04
2022-10-13T15:04:50.782Z,13.02
2022-10-13T15:07:18.957Z,13.01
2022-10-13T15:10:00.575Z,13.00
2022-10-13T15:12:31.810Z,12.96
2022-10-13T15:14:58.788Z,12.92
2022-10-13T15:17:25.808Z,12.88
2022-10-13T15:19:52.754Z,12.85
2022-10-13T15:22:20.343Z,12.81
2022-10-13T15:24:47.480Z,12.77
2022-10-13T15:27:14.516Z,12.73
2022-10-13T15:29:41.499Z,12.69
2022-10-13T15:32:13.626Z,12.63
2022-10-13T15:34:41.525Z,12.60
2022-10-13T15:37:08.464Z,12.55
2022-10-13T15:39:35.542Z,12.53
2022-10-13T15:42:03.024Z,12.47
2022-10-13T15:44:51.018Z,12.45
2022-10-13T15:47:18.292Z,12.43
2022-10-13T15:49:45.296Z,12.38
2022-10-13T15:52:12.518Z,12.38
2022-10-13T15:54:41.011Z,12.33
2022-10-13T15:57:08.184Z,12.32
2022-10-13T15:59:35.273Z,12.28
2022-10-13T16:02:02.213Z,12.27
2022-10-13T16:04:32.295Z,12.24
2022-10-13T16:07:01.945Z,12.21
2022-10-13T16:09:29.032Z,12.17
2022-10-13T16:11:56.032Z,12.12
2022-10-13T16:14:22.926Z,12.07
2022-10-13T16:16:49.997Z,12.05
2022-10-13T16:19:16.866Z,12.01
2022-10-13T16:21:43.913Z,11.98
2022-10-13T16:24:10.824Z,11.94
2022-10-13T16:26:37.846Z,11.90
2022-10-13T16:29:04.705Z,11.89
2022-10-13T16:31:31.670Z,11.89
2022-10-13T16:33:58.732Z,11.86
2022-10-13T16:36:25.664Z,11.83
2022-10-13T16:38:54.871Z,11.81
2022-10-13T16:41:21.965Z,11.77
2022-10-13T16:43:48.943Z,11.75
2022-10-13T16:46:19.578Z,11.72
2022-10-13T16:48:47.569Z,11.70
2022-10-13T16:51:16.843Z,11.69
2022-10-13T16:53:47.820Z,11.65
2022-10-13T16:56:14.991Z,11.63
2022-10-13T16:58:45.430Z,11.56
2022-10-13T17:01:13.190Z,11.50
2022-10-13T17:03:41.216Z,11.47
2022-10-13T17:06:08.554Z,11.43
2022-10-13T17:08:35.720Z,11.40
2022-10-13T17:11:03.521Z,11.38
2022-10-13T17:13:32.366Z,11.31
2022-10-13T17:16:00.128Z,11.28
2022-10-13T17:18:28.097Z,11.23
2022-10-13T17:21:03.073Z,11.15
2022-10-13T17:23:30.576Z,11.10
2022-10-13T17:26:02.542Z,11.03
2022-10-13T17:28:29.582Z,11.02
2022-10-13T17:31:09.626Z,10.95
2022-10-13T17:33:38.150Z,10.90
2022-10-13T17:36:12.370Z,10.90
2022-10-13T17:38:39.545Z,10.86
2022-10-13T17:41:07.903Z,10.84
2022-10-13T17:43:37.868Z,10.78
2022-10-13T17:46:36.319Z,10.75
2022-10-13T17:49:04.635Z,10.76
2022-10-13T17:51:31.802Z,10.80
2022-10-13T17:53:59.768Z,10.82
2022-10-13T17:56:27.078Z,10.83
2022-10-13T17:58:54.750Z,10.79
2022-10-13T18:01:27.321Z,10.76
2022-10-13T18:03:58.568Z,10.75
2022-10-13T18:06:36.751Z,10.78
2022-10-13T18:09:10.851Z,10.76
2022-10-13T18:11:39.138Z,10.76
2022-10-13T18:14:07.329Z,10.73
2022-10-13T18:16:35.205Z,10.70
2022-10-13T18:19:04.514Z,10.60
2022-10-13T18:21:31.734Z,10.53
2022-10-13T18:24:00.471Z,10.46
2022-10-13T18:26:37.680Z,10.37
2022-10-13T18:29:07.953Z,10.31
2022-10-13T18:31:37.312Z,10.27
2022-10-13T18:34:07.751Z,10.19
2022-10-13T18:36:38.769Z,10.17
2022-10-13T18:39:16.909Z,10.16
2022-10-13T18:41:47.125Z,10.14
2022-10-13T18:44:14.718Z,10.14
2022-10-13T18:46:42.661Z,10.14
2022-10-13T18:49:12.977Z,10.16
2022-10-13T18:51:42.378Z,10.15
2022-10-13T18:54:09.565Z,10.15
2022-10-13T18:56:37.212Z,10.06
2022-10-13T18:59:05.776Z,9.99
2022-10-13T19:01:33.969Z,9.96
2022-10-13T19:04:01.431Z,9.89
2022-10-13T19:06:30.535Z,9.78
2022-10-13T19:09:03.719Z,9.71
2022-10-13T19:11:31.867Z,9.68
2022-10-13T19:13:59.623Z,9.64
2022-10-13T19:16:28.906Z,9.62
2022-10-13T19:18:56.519Z,9.57
2022-10-13T19:21:24.668Z,9.52
2022-10-13T19:23:52.102Z,9.47
2022-10-13T19:26:23.760Z,9.42
2022-10-13T19:28:55.853Z,9.34
2022-10-13T20:23:22.595Z,9.74
2022-10-13T20:25:49.671Z,9.90
2022-10-13T20:28:16.593Z,10.00
2022-10-13T20:30:43.726Z,10.04
2022-10-13T20:33:10.695Z,10.08
2022-10-13T20:35:37.726Z,10.12
2022-10-13T20:38:04.695Z,10.15
2022-10-13T20:40:32.154Z,10.19
2022-10-13T20:42:59.167Z,10.21
2022-10-13T20:45:26.134Z,10.26
2022-10-13T20:47:53.033Z,10.30
2022-10-13T20:50:20.985Z,10.33
2022-10-13T20:52:47.894Z,10.36
2022-10-13T20:55:15.426Z,10.39
2022-10-13T20:57:42.413Z,10.42
2022-10-13T21:00:10.253Z,10.48
2022-10-13T21:02:37.482Z,10.58
2022-10-13T21:05:04.782Z,10.66
2022-10-13T21:07:34.660Z,10.73
2022-10-13T21:10:01.659Z,10.77
2022-10-13T21:12:28.741Z,10.76
2022-10-13T21:14:55.729Z,10.75
2022-10-13T21:17:23.110Z,10.73
2022-10-13T21:19:50.636Z,10.72
2022-10-13T21:22:17.569Z,10.65
2022-10-13T21:24:44.694Z,10.59
2022-10-13T21:27:11.825Z,10.54
2022-10-13T21:29:39.057Z,10.50
2022-10-13T21:32:06.142Z,10.43
2022-10-13T21:34:33.239Z,10.33
2022-10-13T21:37:00.289Z,10.27
2022-10-13T21:39:27.430Z,10.20
2022-10-13T21:41:54.436Z,10.16
2022-10-13T21:44:22.271Z,10.16
2022-10-13T21:46:49.210Z,10.17
2022-10-13T21:49:16.334Z,10.15
2022-10-13T21:51:43.354Z,10.15
2022-10-13T21:54:11.980Z,10.20
2022-10-13T21:56:40.015Z,10.26
2022-10-13T21:59:07.910Z,10.31
2022-10-13T22:01:35.088Z,10.34
2022-10-13T22:04:09.344Z,10.36
2022-10-13T22:06:36.451Z,10.34
2022-10-13T22:09:05.153Z,10.32
2022-10-13T22:11:35.107Z,10.24
2022-10-13T22:14:07.379Z,10.20
2022-10-13T22:16:37.315Z,10.14
2022-10-13T22:19:04.672Z,10.06
2022-10-13T22:21:36.582Z,10.01
2022-10-13T22:24:06.283Z,9.97
2022-10-13T22:26:35.604Z,9.93
2022-10-13T22:29:04.301Z,9.92
2022-10-13T22:31:33.456Z,9.92
2022-10-13T22:34:07.705Z,9.92
2022-10-13T22:36:34.799Z,9.92
2022-10-13T22:39:03.481Z,9.90
2022-10-13T22:41:31.955Z,9.90
2022-10-13T22:43:59.548Z,9.88
2022-10-13T22:46:29.318Z,9.89
2022-10-13T22:48:57.457Z,9.90
2022-10-13T22:51:26.253Z,9.89
2022-10-13T22:53:53.934Z,9.86
2022-10-13T22:56:26.235Z,9.84
2022-10-13T22:58:55.492Z,9.88
2022-10-13T23:01:22.910Z,9.91
2022-10-13T23:03:52.424Z,9.96
2022-10-13T23:06:21.332Z,9.98
2022-10-13T23:08:49.497Z,10.00
2022-10-13T23:11:18.204Z,10.01
2022-10-13T23:13:45.953Z,10.08
2022-10-13T23:16:16.382Z,10.11
2022-10-13T23:18:43.553Z,10.13
2022-10-13T23:21:26.263Z,10.16
2022-10-13T23:23:58.353Z,10.14
2022-10-13T23:26:26.082Z,10.14
2022-10-13T23:28:54.903Z,10.12
2022-10-13T23:31:21.965Z,10.09
2022-10-13T23:33:48.993Z,10.02
2022-10-13T23:36:21.205Z,9.92
2022-10-13T23:38:48.881Z,9.83
2022-10-13T23:41:16.756Z,9.74
2022-10-13T23:43:44.302Z,9.68
2022-10-13T23:46:11.572Z,9.60
2022-10-13T23:48:39.686Z,9.53
2022-10-13T23:51:09.097Z,9.48
2022-10-13T23:53:38.297Z,9.45
2022-10-13T23:56:09.293Z,9.41
2022-10-13T23:58:37.556Z,9.40
